createdAt,value
2018-11-04T00:00:32.777Z,33.50
2018-11-04T00:03:01.193Z,28.55
2018-11-04T00:05:29.627Z,34.60
2018-11-04T00:07:57.999Z,31.13
2018-11-04T00:10:26.270Z,30.37
2018-11-04T00:12:54.731Z,33.45
2018-11-04T00:15:23.200Z,36.60
2018-11-04T00:17:51.558Z,31.62
2018-11-04T00:20:20.082Z,28.98
2018-11-04T00:22:48.586Z,30.48
2018-11-04T00:25:17.182Z,31.27
2018-11-04T00:27:45.469Z,32.73
2018-11-04T00:30:14.873Z,30.43
2018-11-04T00:32:43.866Z,30.70
2018-11-04T00:35:12.439Z,29.87
2018-11-04T00:37:41.059Z,30.70
2018-11-04T00:40:09.482Z,28.33
2018-11-04T00:42:38.085Z,36.55
2018-11-04T00:45:07.897Z,49.05
2018-11-04T00:47:36.246Z,40.20
2018-11-04T00:50:04.892Z,40.20
2018-11-04T00:52:33.168Z,35.03
2018-11-04T00:55:01.466Z,33.80
2018-11-04T00:57:29.739Z,34.18
2018-11-04T00:59:58.027Z,32.70
2018-11-04T01:02:26.307Z,38.40
2018-11-04T01:04:54.595Z,36.60
2018-11-04T01:07:22.878Z,38.90
2018-11-04T01:09:51.163Z,32.93
2018-11-04T01:12:19.436Z,34.73
2018-11-04T01:14:47.703Z,32.50
2018-11-04T01:17:16.029Z,32.53
2018-11-04T01:19:44.314Z,29.40
2018-11-04T01:22:12.595Z,29.42
2018-11-04T01:24:40.861Z,30.08
2018-11-04T01:27:09.147Z,31.03
2018-11-04T01:29:37.429Z,33.48
2018-11-04T01:32:06.105Z,33.25
2018-11-04T01:34:34.470Z,33.27
2018-11-04T01:37:02.733Z,34.50
2018-11-04T01:39:31.047Z,32.50
2018-11-04T01:41:59.391Z,34.80
2018-11-04T01:44:27.682Z,34.25
2018-11-04T01:46:55.968Z,41.75
2018-11-04T01:49:24.233Z,31.93
2018-11-04T01:51:52.551Z,32.00
2018-11-04T01:54:20.832Z,33.50
2018-11-04T01:56:49.160Z,41.75
2018-11-04T01:59:17.476Z,40.45
2018-11-04T02:01:45.798Z,37.45
2018-11-04T02:04:14.499Z,36.75
2018-11-04T02:06:42.783Z,35.52
2018-11-04T02:09:11.915Z,43.00
2018-11-04T02:11:40.415Z,38.35
2018-11-04T02:14:08.701Z,36.25
2018-11-04T02:16:37.258Z,35.30
2018-11-04T02:19:05.657Z,34.60
2018-11-04T02:21:34.004Z,38.08
2018-11-04T02:24:02.427Z,37.70
2018-11-04T02:26:30.715Z,36.88
2018-11-04T02:28:59.011Z,41.63
2018-11-04T02:31:27.453Z,32.60
2018-11-04T02:33:55.733Z,31.77
2018-11-04T02:36:24.128Z,33.70
2018-11-04T02:38:52.392Z,36.03
2018-11-04T02:41:20.704Z,38.95
2018-11-04T02:43:48.995Z,38.38
2018-11-04T02:46:17.292Z,32.50
2018-11-04T02:48:45.564Z,31.70
2018-11-04T02:51:13.893Z,27.93
2018-11-04T02:53:42.130Z,33.25
2018-11-04T02:56:10.416Z,34.20
2018-11-04T02:58:38.703Z,30.08
2018-11-04T03:01:06.993Z,34.60
2018-11-04T03:03:35.265Z,39.63
2018-11-04T03:06:03.543Z,41.70
2018-11-04T03:08:31.821Z,38.53
2018-11-04T03:11:00.071Z,33.43
2018-11-04T03:13:28.347Z,33.05
2018-11-04T03:15:56.632Z,34.85
2018-11-04T03:18:24.925Z,36.40
2018-11-04T03:20:53.321Z,37.03
2018-11-04T03:26:01.405Z,34.83
2018-11-04T03:28:29.664Z,36.40
2018-11-04T03:30:57.973Z,38.25
2018-11-04T03:33:26.222Z,41.85
2018-11-04T03:35:54.502Z,37.65
2018-11-04T03:38:22.772Z,39.65
2018-11-04T03:40:51.043Z,35.63
2018-11-04T03:43:19.376Z,36.95
2018-11-04T03:45:47.645Z,36.70
2018-11-04T03:48:15.920Z,33.45
2018-11-04T03:50:44.252Z,37.65
2018-11-04T03:53:12.550Z,36.03
2018-11-04T03:55:40.871Z,37.28
2018-11-04T03:58:09.180Z,40.15
2018-11-04T04:00:37.451Z,38.83
2018-11-04T04:03:05.919Z,38.40
2018-11-04T04:05:34.156Z,37.17
2018-11-04T04:08:02.487Z,39.03
2018-11-04T04:10:30.806Z,41.35
2018-11-04T04:12:59.111Z,40.30
2018-11-04T04:15:27.421Z,38.98
2018-11-04T04:17:55.725Z,41.08
2018-11-04T04:20:24.035Z,40.83
2018-11-04T04:22:52.316Z,40.23
2018-11-04T04:25:20.600Z,41.95
2018-11-04T04:27:48.919Z,41.48
2018-11-04T04:30:17.183Z,36.98
2018-11-04T04:32:45.464Z,37.50
2018-11-04T04:35:13.767Z,36.08
2018-11-04T04:37:42.331Z,43.25
2018-11-04T04:40:10.915Z,39.05
2018-11-04T04:42:39.268Z,38.83
2018-11-04T04:45:07.676Z,38.35
2018-11-04T04:47:36.051Z,41.58
2018-11-04T04:50:04.949Z,35.52
2018-11-04T04:52:33.316Z,42.58
2018-11-04T04:55:01.606Z,37.48
2018-11-04T04:57:29.903Z,37.60
2018-11-04T04:59:58.350Z,41.15
2018-11-04T05:02:26.811Z,42.62
2018-11-04T05:04:55.190Z,42.35
2018-11-04T05:07:23.471Z,41.98
2018-11-04T05:09:51.927Z,42.20
2018-11-04T05:12:20.201Z,40.83
2018-11-04T05:14:48.599Z,43.78
2018-11-04T05:17:16.884Z,38.65
2018-11-04T05:19:45.155Z,41.10
2018-11-04T05:22:13.431Z,42.50
2018-11-04T05:24:41.711Z,39.33
2018-11-04T05:27:10.007Z,41.25
2018-11-04T05:29:38.281Z,45.05
2018-11-04T05:32:06.524Z,38.95
2018-11-04T05:34:34.823Z,42.88
2018-11-04T05:37:03.111Z,42.85
2018-11-04T05:39:31.422Z,43.00
2018-11-04T05:41:59.692Z,39.58
2018-11-04T05:44:27.936Z,38.92
2018-11-04T05:46:56.231Z,44.13
2018-11-04T05:49:24.508Z,39.78
2018-11-04T05:51:52.775Z,42.43
2018-11-04T05:54:21.119Z,41.28
2018-11-04T05:56:49.426Z,42.40
2018-11-04T05:59:17.688Z,42.45
2018-11-04T06:01:46.136Z,44.23
2018-11-04T06:04:14.640Z,43.10
2018-11-04T06:06:42.943Z,46.37
2018-11-04T06:09:11.356Z,42.08
2018-11-04T06:11:39.878Z,47.15
2018-11-04T06:14:08.477Z,45.45
2018-11-04T06:16:36.752Z,43.92
2018-11-04T06:19:05.538Z,43.30
2018-11-04T06:21:33.845Z,47.03
2018-11-04T06:24:02.102Z,48.27
2018-11-04T06:26:30.368Z,48.23
2018-11-04T06:28:58.639Z,45.20
2018-11-04T06:31:26.987Z,46.05
2018-11-04T06:33:55.259Z,47.58
2018-11-04T06:36:23.506Z,50.30
2018-11-04T06:38:51.896Z,46.98
2018-11-04T06:41:20.203Z,48.10
2018-11-04T06:43:48.448Z,53.30
2018-11-04T06:46:16.827Z,51.73
2018-11-04T06:48:45.244Z,47.55
2018-11-04T06:51:13.606Z,47.98
2018-11-04T06:53:41.907Z,47.62
2018-11-04T06:56:10.170Z,49.48
2018-11-04T06:58:38.471Z,47.35
2018-11-04T07:01:06.729Z,47.03
2018-11-04T07:03:35.034Z,46.40
2018-11-04T07:06:03.316Z,47.55
2018-11-04T07:08:31.598Z,48.48
2018-11-04T07:10:59.904Z,48.43
2018-11-04T07:13:28.155Z,45.28
2018-11-04T07:15:56.411Z,45.92
2018-11-04T07:18:24.726Z,47.48
2018-11-04T07:20:53.044Z,47.75
2018-11-04T07:23:21.319Z,48.40
2018-11-04T07:25:49.621Z,48.25
2018-11-04T07:28:17.855Z,48.87
2018-11-04T07:30:46.149Z,47.30
2018-11-04T07:33:14.455Z,48.98
2018-11-04T07:35:42.728Z,46.23
2018-11-04T07:38:11.079Z,48.35
2018-11-04T07:40:39.374Z,49.90
2018-11-04T07:43:07.636Z,47.95
2018-11-04T07:45:35.933Z,46.37
2018-11-04T07:48:04.230Z,46.73
2018-11-04T07:50:32.577Z,48.50
2018-11-04T07:53:00.836Z,51.18
2018-11-04T07:55:29.122Z,52.27
2018-11-04T07:57:57.405Z,48.28
2018-11-04T08:00:25.737Z,49.58
2018-11-04T08:02:54.016Z,51.80
2018-11-04T08:05:22.336Z,52.85
2018-11-04T08:07:50.656Z,50.98
2018-11-04T08:10:18.939Z,53.30
2018-11-04T08:12:47.211Z,50.00
2018-11-04T08:15:15.547Z,50.40
2018-11-04T08:17:43.858Z,50.48
2018-11-04T08:20:12.170Z,53.65
2018-11-04T08:22:40.873Z,47.58
2018-11-04T08:25:09.139Z,50.30
2018-11-04T08:27:37.680Z,49.35
2018-11-04T08:30:07.456Z,48.20
2018-11-04T08:32:35.860Z,49.00
2018-11-04T08:35:04.179Z,49.90
2018-11-04T08:37:32.505Z,49.53
2018-11-04T08:40:01.140Z,49.77
2018-11-04T08:42:29.384Z,47.80
2018-11-04T08:44:57.646Z,49.80
2018-11-04T08:47:25.890Z,56.77
2018-11-04T08:49:54.154Z,53.40
2018-11-04T08:52:22.510Z,51.70
2018-11-04T08:54:50.814Z,49.90
2018-11-04T08:57:19.129Z,50.12
2018-11-04T08:59:47.448Z,49.98
2018-11-04T09:02:15.756Z,53.60
2018-11-04T09:04:44.093Z,52.23
2018-11-04T09:07:12.348Z,53.98
2018-11-04T09:09:40.617Z,48.68
2018-11-04T09:12:08.914Z,52.85
2018-11-04T09:14:37.203Z,53.00
2018-11-04T09:17:06.078Z,52.62
2018-11-04T09:19:34.332Z,53.65
2018-11-04T09:22:02.888Z,54.00
2018-11-04T09:24:30.913Z,56.35
2018-11-04T09:26:59.173Z,52.23
2018-11-04T09:29:27.459Z,55.52
2018-11-04T09:31:55.741Z,51.88
2018-11-04T09:34:24.031Z,53.83
2018-11-04T09:36:52.383Z,51.70
2018-11-04T09:39:20.687Z,59.63
2018-11-04T09:41:49.031Z,55.43
2018-11-04T09:44:17.313Z,52.98
2018-11-04T09:46:45.643Z,52.20
2018-11-04T09:49:14.338Z,53.80
2018-11-04T09:51:42.793Z,55.25
2018-11-04T09:54:11.048Z,50.88
2018-11-04T09:56:39.402Z,55.60
2018-11-04T09:59:07.677Z,56.10
2018-11-04T10:01:35.970Z,51.20
2018-11-04T10:04:04.247Z,55.38
2018-11-04T10:06:32.575Z,56.68
2018-11-04T10:09:00.843Z,51.73
2018-11-04T10:11:29.199Z,55.20
2018-11-04T10:13:57.515Z,52.70
2018-11-04T10:16:25.931Z,54.25
2018-11-04T10:18:54.215Z,54.35
2018-11-04T10:21:22.504Z,52.80
2018-11-04T10:23:50.784Z,51.18
2018-11-04T10:26:19.080Z,55.47
2018-11-04T10:28:47.355Z,51.90
2018-11-04T10:31:15.626Z,54.03
2018-11-04T10:33:43.907Z,55.20
2018-11-04T10:36:12.176Z,53.85
2018-11-04T10:38:40.478Z,50.63
2018-11-04T10:41:08.801Z,55.20
2018-11-04T10:43:37.097Z,53.87
2018-11-04T10:46:05.564Z,54.00
2018-11-04T10:48:33.875Z,56.48
2018-11-04T10:51:02.192Z,54.15
2018-11-04T10:53:30.467Z,54.08
2018-11-04T10:55:58.887Z,51.58
2018-11-04T10:58:27.136Z,51.33
2018-11-04T11:01:00.815Z,53.52
2018-11-04T11:03:29.123Z,54.33
2018-11-04T11:05:57.634Z,58.25
2018-11-04T11:08:25.907Z,53.70
2018-11-04T11:10:54.366Z,51.25
2018-11-04T11:13:22.636Z,53.15
2018-11-04T11:15:51.411Z,55.43
2018-11-04T11:18:20.176Z,53.90
2018-11-04T11:20:48.469Z,58.00
2018-11-04T11:23:16.979Z,60.53
2018-11-04T11:25:45.162Z,56.60
2018-11-04T11:28:13.517Z,54.95
2018-11-04T11:30:42.091Z,53.95
2018-11-04T11:33:10.483Z,52.80
2018-11-04T11:35:38.769Z,56.98
2018-11-04T11:38:07.248Z,55.33
2018-11-04T11:40:35.451Z,57.10
2018-11-04T11:43:03.794Z,58.80
2018-11-04T11:45:32.070Z,57.35
2018-11-04T11:48:00.895Z,52.27
2018-11-04T11:50:29.186Z,55.25
2018-11-04T11:52:57.666Z,53.05
2018-11-04T11:55:25.969Z,54.67
2018-11-04T11:57:54.266Z,53.02
2018-11-04T12:00:23.340Z,55.85
2018-11-04T12:02:51.677Z,55.30
2018-11-04T12:05:20.010Z,54.63
2018-11-04T12:07:48.260Z,51.80
2018-11-04T12:10:16.589Z,55.60
2018-11-04T12:12:44.874Z,53.17
2018-11-04T12:15:14.169Z,54.57
2018-11-04T12:17:42.581Z,57.17
2018-11-04T12:20:11.799Z,65.95
2018-11-04T12:22:40.164Z,60.52
2018-11-04T12:25:09.865Z,53.55
2018-11-04T12:27:38.141Z,57.60
2018-11-04T12:30:09.235Z,54.73
2018-11-04T12:32:37.723Z,52.10
2018-11-04T12:35:06.891Z,49.20
2018-11-04T12:37:35.537Z,54.13
2018-11-04T12:40:04.108Z,51.58
2018-11-04T12:42:32.459Z,54.20
2018-11-04T12:45:00.894Z,56.02
2018-11-04T12:47:29.198Z,52.23
2018-11-04T12:49:57.495Z,54.10
2018-11-04T12:52:25.864Z,55.90
2018-11-04T12:54:54.113Z,49.18
2018-11-04T12:57:22.426Z,51.05
2018-11-04T12:59:50.832Z,51.67
2018-11-04T13:02:19.141Z,50.48
2018-11-04T13:04:47.524Z,53.73
2018-11-04T13:07:15.816Z,52.53
2018-11-04T13:09:44.151Z,52.65
2018-11-04T13:12:12.507Z,52.05
2018-11-04T13:14:40.799Z,52.78
2018-11-04T13:17:09.132Z,55.25
2018-11-04T13:19:37.408Z,50.37
2018-11-04T13:22:05.718Z,53.83
2018-11-04T13:24:34.063Z,48.90
2018-11-04T13:27:02.373Z,49.53
2018-11-04T13:29:30.652Z,48.58
2018-11-04T13:31:59.063Z,53.28
2018-11-04T13:34:27.484Z,52.58
2018-11-04T13:36:55.782Z,51.73
2018-11-04T13:39:24.098Z,48.63
2018-11-04T13:41:52.384Z,55.33
2018-11-04T13:44:20.984Z,48.85
2018-11-04T13:46:49.385Z,49.23
2018-11-04T13:49:18.045Z,54.73
2018-11-04T13:51:46.347Z,48.33
2018-11-04T13:54:14.674Z,51.13
2018-11-04T13:56:42.959Z,54.05
2018-11-04T13:59:11.247Z,49.42
2018-11-04T14:01:39.815Z,53.75
2018-11-04T14:04:08.112Z,50.67
2018-11-04T14:06:36.555Z,55.20
2018-11-04T14:09:05.986Z,50.60
2018-11-04T14:11:34.420Z,48.13
2018-11-04T14:14:02.827Z,50.25
2018-11-04T14:16:31.130Z,51.07
2018-11-04T14:18:59.468Z,47.10
2018-11-04T14:21:27.883Z,56.08
2018-11-04T14:23:56.367Z,55.58
2018-11-04T14:26:24.572Z,56.98
2018-11-04T14:28:52.922Z,54.85
2018-11-04T14:31:21.248Z,55.10
2018-11-04T14:33:49.611Z,51.40
2018-11-04T14:36:18.095Z,50.75
2018-11-04T14:38:46.484Z,56.68
2018-11-04T14:41:14.755Z,56.80
2018-11-04T14:43:43.046Z,53.58
2018-11-04T14:46:11.418Z,53.33
2018-11-04T14:48:39.752Z,50.20
2018-11-04T14:51:08.048Z,51.23
2018-11-04T14:53:36.336Z,56.92
2018-11-04T14:56:04.834Z,55.10
2018-11-04T14:58:33.207Z,52.98
2018-11-04T15:01:01.500Z,46.83
2018-11-04T15:03:29.775Z,48.70
2018-11-04T15:05:58.155Z,47.13
2018-11-04T15:08:26.641Z,47.17
2018-11-04T15:10:55.049Z,49.30
2018-11-04T15:13:23.345Z,48.70
2018-11-04T15:15:51.703Z,44.20
2018-11-04T15:18:19.994Z,41.80
2018-11-04T15:20:48.567Z,37.47
2018-11-04T15:23:17.075Z,38.15
2018-11-04T15:25:45.420Z,39.85
2018-11-04T15:28:13.843Z,40.05
2018-11-04T15:30:42.169Z,39.43
2018-11-04T15:33:10.543Z,36.85
2018-11-04T15:35:38.808Z,33.73
2018-11-04T15:38:07.193Z,32.42
2018-11-04T15:40:35.978Z,32.13
2018-11-04T15:43:04.600Z,32.63
2018-11-04T15:45:33.072Z,31.82
2018-11-04T15:48:01.492Z,33.83
2018-11-04T15:50:29.939Z,30.30
2018-11-04T15:52:58.724Z,31.07
2018-11-04T15:55:27.003Z,30.00
2018-11-04T15:57:55.302Z,36.37
2018-11-04T16:00:23.579Z,29.33
2018-11-04T16:02:51.913Z,34.00
2018-11-04T16:05:20.321Z,32.38
2018-11-04T16:07:48.632Z,31.48
2018-11-04T16:10:16.972Z,33.63
2018-11-04T16:12:45.453Z,32.00
2018-11-04T16:15:14.815Z,35.07
2018-11-04T16:17:43.793Z,35.63
2018-11-04T16:20:13.566Z,34.33
2018-11-04T16:22:42.526Z,34.80
2018-11-04T16:25:11.450Z,41.95
2018-11-04T16:27:39.988Z,39.93
2018-11-04T16:30:09.515Z,39.38
2018-11-04T16:32:38.269Z,39.60
2018-11-04T16:35:07.443Z,40.75
2018-11-04T16:37:35.771Z,35.92
2018-11-04T16:40:04.037Z,29.60
2018-11-04T16:42:32.334Z,29.72
2018-11-04T16:45:00.604Z,33.58
2018-11-04T16:47:28.912Z,38.45
2018-11-04T16:49:57.211Z,39.90
2018-11-04T16:52:25.751Z,39.92
2018-11-04T16:54:54.200Z,30.12
2018-11-04T16:57:22.445Z,32.10
2018-11-04T16:59:50.756Z,30.17
2018-11-04T17:02:19.068Z,26.37
2018-11-04T17:04:47.667Z,31.45
2018-11-04T17:07:15.838Z,29.17
2018-11-04T17:09:44.216Z,28.70
2018-11-04T17:12:12.498Z,31.27
2018-11-04T17:14:40.774Z,28.60
2018-11-04T17:17:09.031Z,29.25
2018-11-04T17:19:37.358Z,28.07
2018-11-04T17:22:05.899Z,27.82
2018-11-04T17:24:34.158Z,26.17
2018-11-04T17:27:02.442Z,27.80
2018-11-04T17:29:30.738Z,31.30
2018-11-04T17:31:59.007Z,29.82
2018-11-04T17:34:27.280Z,31.02
2018-11-04T17:36:55.540Z,28.45
2018-11-04T17:39:23.853Z,30.37
2018-11-04T17:41:52.122Z,29.10
2018-11-04T17:44:20.505Z,29.23
2018-11-04T17:46:48.732Z,28.60
2018-11-04T17:49:17.141Z,27.32
2018-11-04T17:51:45.403Z,26.47
2018-11-04T17:54:13.766Z,30.53
2018-11-04T17:56:42.055Z,27.35
2018-11-04T17:59:10.312Z,30.02
2018-11-04T18:01:38.611Z,28.38
2018-11-04T18:04:07.036Z,26.75
2018-11-04T18:06:35.445Z,27.77
2018-11-04T18:09:04.850Z,26.48
2018-11-04T18:11:33.116Z,25.43
2018-11-04T18:14:01.491Z,26.77
2018-11-04T18:16:29.711Z,24.80
2018-11-04T18:18:58.035Z,34.30
2018-11-04T18:21:26.334Z,28.12
2018-11-04T18:23:54.640Z,26.77
2018-11-04T18:26:23.035Z,26.12
2018-11-04T18:28:51.403Z,27.30
2018-11-04T18:31:19.707Z,29.18
2018-11-04T18:33:48.026Z,29.85
2018-11-04T18:36:16.341Z,28.57
2018-11-04T18:38:44.668Z,30.52
2018-11-04T18:41:12.958Z,32.75
2018-11-04T18:43:41.772Z,31.10
2018-11-04T18:46:10.046Z,31.35
2018-11-04T18:48:38.310Z,36.40
2018-11-04T18:51:06.603Z,40.73
2018-11-04T18:53:34.873Z,39.05
2018-11-04T18:56:03.175Z,36.73
2018-11-04T18:58:31.535Z,33.28
2018-11-04T19:00:59.845Z,33.63
2018-11-04T19:03:28.405Z,32.83
2018-11-04T19:05:56.724Z,35.15
2018-11-04T19:08:25.030Z,34.53
2018-11-04T19:10:53.338Z,36.73
2018-11-04T19:13:21.606Z,35.43
2018-11-04T19:15:50.027Z,34.48
2018-11-04T19:18:18.306Z,34.33
2018-11-04T19:20:46.582Z,31.40
2018-11-04T19:23:15.014Z,31.23
2018-11-04T19:25:43.281Z,33.00
2018-11-04T19:28:11.580Z,33.40
2018-11-04T19:30:39.903Z,29.85
2018-11-04T19:33:08.172Z,33.75
2018-11-04T19:35:37.036Z,32.80
2018-11-04T19:38:05.408Z,32.40
2018-11-04T19:40:33.913Z,30.72
2018-11-04T19:43:02.474Z,28.25
2018-11-04T19:45:30.697Z,29.43
2018-11-04T19:47:59.059Z,29.23
2018-11-04T19:50:27.274Z,31.70
2018-11-04T19:52:55.561Z,28.50
2018-11-04T19:55:23.835Z,24.45
2018-11-04T19:57:52.180Z,26.35
2018-11-04T20:00:20.487Z,25.10
2018-11-04T20:02:48.771Z,24.85
2018-11-04T20:05:17.130Z,29.10
2018-11-04T20:07:45.390Z,30.73
2018-11-04T20:10:15.807Z,30.57
2018-11-04T20:12:49.427Z,31.80
2018-11-04T20:15:17.721Z,35.80
2018-11-04T20:17:46.983Z,29.37
2018-11-04T20:20:17.214Z,31.55
2018-11-04T20:22:45.482Z,31.55
2018-11-04T20:25:19.167Z,29.00
2018-11-04T20:27:48.214Z,30.45
2018-11-04T20:30:16.492Z,29.42
2018-11-04T20:32:50.262Z,24.77
2018-11-04T20:35:18.540Z,29.63
2018-11-04T20:37:46.858Z,28.57
2018-11-04T20:40:20.453Z,26.77
2018-11-04T20:42:48.776Z,25.15
2018-11-04T20:45:17.126Z,31.30
2018-11-04T20:47:50.782Z,27.15
2018-11-04T20:50:24.539Z,27.85
2018-11-04T20:52:52.838Z,26.23
2018-11-04T20:55:21.095Z,26.60
2018-11-04T20:57:58.308Z,24.82
2018-11-04T21:00:26.797Z,27.17
2018-11-04T21:02:55.464Z,25.47
2018-11-04T21:05:23.773Z,24.05
2018-11-04T21:07:52.568Z,27.60
2018-11-04T21:10:20.909Z,24.43
2018-11-04T21:12:49.206Z,24.57
2018-11-04T21:15:17.560Z,26.17
2018-11-04T21:17:45.863Z,26.50
2018-11-04T21:20:14.124Z,29.82
2018-11-04T21:22:42.531Z,40.37
2018-11-04T21:25:10.845Z,30.90
2018-11-04T21:27:39.164Z,30.72
2018-11-04T21:30:09.555Z,30.70
2018-11-04T21:32:38.139Z,29.90
2018-11-04T21:35:07.424Z,27.65
2018-11-04T21:37:35.818Z,26.90
2018-11-04T21:40:04.594Z,32.55
2018-11-04T21:42:33.063Z,41.92
2018-11-04T21:45:01.261Z,38.10
2018-11-04T21:47:29.542Z,37.05
2018-11-04T21:49:57.866Z,35.23
2018-11-04T21:52:26.185Z,32.00
2018-11-04T21:54:54.456Z,28.65
2018-11-04T21:57:22.776Z,29.00
2018-11-04T21:59:51.097Z,26.45
2018-11-04T22:02:20.731Z,28.83
2018-11-04T22:04:48.980Z,26.90
2018-11-04T22:07:17.285Z,27.35
2018-11-04T22:09:45.883Z,26.43
2018-11-04T22:12:14.183Z,28.45
2018-11-04T22:14:42.464Z,25.37
2018-11-04T22:17:10.758Z,27.60
2018-11-04T22:19:39.054Z,26.47
2018-11-04T22:22:07.428Z,26.60
2018-11-04T22:24:35.646Z,27.65
2018-11-04T22:27:03.915Z,29.95
2018-11-04T22:29:32.379Z,29.82
2018-11-04T22:32:00.679Z,28.02
2018-11-04T22:34:28.965Z,26.47
2018-11-04T22:36:57.276Z,26.57
2018-11-04T22:39:25.820Z,25.35
2018-11-04T22:41:54.153Z,27.42
2018-11-04T22:44:22.435Z,24.98
2018-11-04T22:46:50.739Z,25.43
2018-11-04T22:49:19.046Z,27.95
2018-11-04T22:51:47.322Z,23.35
2018-11-04T22:54:15.643Z,26.55
2018-11-04T22:56:43.958Z,24.12
2018-11-04T22:59:12.348Z,24.20
2018-11-04T23:01:40.812Z,27.40
2018-11-04T23:04:09.048Z,23.95
2018-11-04T23:06:37.271Z,26.30
2018-11-04T23:09:09.176Z,27.27
2018-11-04T23:11:37.723Z,24.85
2018-11-04T23:14:06.080Z,22.67
2018-11-04T23:16:34.352Z,22.10
2018-11-04T23:19:02.823Z,24.47
2018-11-04T23:21:31.136Z,25.43
2018-11-04T23:23:59.579Z,25.32
2018-11-04T23:26:27.945Z,25.53
2018-11-04T23:28:56.408Z,25.70
2018-11-04T23:31:24.686Z,27.55
2018-11-04T23:33:53.054Z,21.62
2018-11-04T23:36:21.548Z,21.10
2018-11-04T23:38:49.816Z,22.35
2018-11-04T23:41:18.191Z,24.72
2018-11-04T23:43:46.499Z,21.65
2018-11-04T23:46:14.787Z,22.25
2018-11-04T23:48:43.127Z,24.57
2018-11-04T23:51:11.430Z,24.00
2018-11-04T23:53:40.414Z,24.35
2018-11-04T23:56:08.703Z,25.97
2018-11-04T23:58:36.991Z,22.85
